Time;durP1;ratioP1;P1;durP2;ratioP2;P2;SDS_P1;SDS_P2;PMS_P1;PMS_P2;Temp;Humidity;BMP_temperature;BMP_pressure;BME280_temperature;BME280_humidity;BME280_pressure;Samples;Min_cycle;Max_cycle;Signal;HPM_P1;HPM_P2
2023/07/04 00:01:24;;;;;;;2.28;0.50;;;11.50;99.90;;;;;;5085035;28;20007;-79
2023/07/04 00:03:52;;;;;;;1.52;0.43;;;11.50;99.90;;;;;;5086733;28;20048;-78
2023/07/04 00:06:18;;;;;;;1.58;0.52;;;11.50;99.90;;;;;;5068077;28;20104;-78
2023/07/04 00:08:44;;;;;;;0.73;0.40;;;11.50;99.90;;;;;;5085482;28;20059;-78
2023/07/04 00:11:11;;;;;;;3.08;0.70;;;11.50;99.90;;;;;;5081451;28;20101;-78
2023/07/04 00:13:37;;;;;;;0.73;0.40;;;11.40;99.90;;;;;;5089976;28;20115;-78
2023/07/04 00:16:10;;;;;;;;;;;11.60;99.90;;;;;;5066479;28;20149;-78
2023/07/04 00:18:38;;;;;;;1.13;0.40;;;11.30;99.90;;;;;;5088455;28;19947;-78
2023/07/04 00:21:07;;;;;;;1.60;0.47;;;11.40;99.90;;;;;;5080413;28;20040;-78
2023/07/04 00:23:35;;;;;;;0.85;0.30;;;11.50;99.90;;;;;;5086054;28;20044;-78
2023/07/04 00:26:02;;;;;;;0.47;0.30;;;11.30;99.90;;;;;;5086876;28;20399;-78
2023/07/04 00:28:28;;;;;;;0.30;0.20;;;11.50;99.90;;;;;;5087591;28;20070;-78
2023/07/04 00:30:55;;;;;;;0.20;0.20;;;11.30;99.90;;;;;;5083339;28;20405;-78
2023/07/04 00:33:23;;;;;;;0.20;0.13;;;11.20;99.90;;;;;;5082497;28;20543;-78
2023/07/04 00:35:49;;;;;;;0.75;0.25;;;11.40;99.90;;;;;;5081947;28;20036;-78
2023/07/04 00:38:16;;;;;;;;;;;11.40;99.90;;;;;;5090738;28;20028;-78
2023/07/04 00:40:44;;;;;;;0.93;0.32;;;11.30;99.90;;;;;;5082749;28;19942;-78
2023/07/04 00:43:12;;;;;;;0.35;0.20;;;11.40;99.90;;;;;;5086670;28;20044;-78
2023/07/04 00:45:43;;;;;;;0.88;0.30;;;11.40;99.90;;;;;;5082190;28;20032;-80
2023/07/04 00:48:11;;;;;;;0.63;0.30;;;11.40;99.90;;;;;;5070997;28;20435;-79
2023/07/04 00:50:43;;;;;;;0.30;0.20;;;11.20;99.90;;;;;;5074135;28;20047;-79
2023/07/04 00:53:11;;;;;;;0.32;0.20;;;11.10;99.90;;;;;;5088107;28;20200;-78
2023/07/04 00:55:40;;;;;;;1.63;0.20;;;11.20;99.90;;;;;;5086113;28;20119;-78
2023/07/04 00:58:07;;;;;;;0.60;0.20;;;11.10;99.90;;;;;;5075804;28;20426;-78
2023/07/04 01:00:37;;;;;;;0.75;0.30;;;11.10;99.90;;;;;;5075755;28;20488;-78
2023/07/04 01:03:12;;;;;;;0.10;0.10;;;11.00;99.90;;;;;;5083243;28;20078;-78
2023/07/04 01:06:14;;;;;;;0.85;0.32;;;11.10;99.90;;;;;;5077960;28;20044;-78
2023/07/04 01:08:43;;;;;;;0.63;0.30;;;11.10;99.90;;;;;;5085577;28;20074;-78
2023/07/04 01:11:15;;;;;;;0.25;0.10;;;11.10;99.90;;;;;;5085838;28;20090;-78
2023/07/04 01:13:45;;;;;;;0.47;0.20;;;11.10;99.90;;;;;;5073353;28;20047;-78
2023/07/04 01:16:18;;;;;;;0.40;0.20;;;11.00;99.90;;;;;;5086632;28;20036;-78
2023/07/04 01:18:49;;;;;;;0.13;0.13;;;10.90;99.90;;;;;;5066009;28;20032;-78
2023/07/04 01:21:17;;;;;;;0.10;0.10;;;10.90;99.90;;;;;;5089196;28;20040;-78
2023/07/04 01:23:55;;;;;;;0.30;0.10;;;10.90;99.90;;;;;;5079556;28;20033;-78
2023/07/04 01:26:41;;;;;;;0.43;0.10;;;11.00;99.90;;;;;;5088538;28;20076;-79
2023/07/04 01:29:11;;;;;;;1.50;0.30;;;10.90;99.90;;;;;;5089598;28;20152;-78
2023/07/04 01:31:37;;;;;;;0.65;0.22;;;10.90;99.90;;;;;;5088542;28;20199;-78
2023/07/04 01:34:04;;;;;;;2.08;0.52;;;11.00;99.90;;;;;;5072719;28;20043;-78
2023/07/04 01:36:34;;;;;;;0.88;0.45;;;11.20;99.90;;;;;;5083067;28;20075;-78
2023/07/04 01:39:00;;;;;;;1.55;0.70;;;11.20;99.90;;;;;;5089521;28;20044;-78
2023/07/04 01:41:26;;;;;;;1.63;0.50;;;11.20;99.90;;;;;;5087647;28;20477;-78
2023/07/04 01:44:04;;;;;;;0.57;0.30;;;11.30;99.90;;;;;;5066015;28;20107;-78
2023/07/04 01:46:31;;;;;;;0.60;0.40;;;11.20;99.90;;;;;;5088611;28;20048;-78
2023/07/04 01:48:57;;;;;;;0.32;0.30;;;11.30;99.90;;;;;;5089162;28;20593;-78
2023/07/04 01:51:29;;;;;;;1.00;0.40;;;11.30;99.90;;;;;;5089399;28;20082;-78
2023/07/04 01:53:55;;;;;;;0.98;0.40;;;11.10;99.90;;;;;;5083248;28;20163;-78
2023/07/04 01:56:21;;;;;;;0.88;0.40;;;11.40;99.90;;;;;;5088537;28;20054;-78
2023/07/04 01:58:47;;;;;;;1.80;0.40;;;11.20;99.90;;;;;;5087726;28;20028;-78
2023/07/04 02:01:12;;;;;;;0.43;0.20;;;11.10;99.90;;;;;;5084014;28;20093;-78
2023/07/04 02:03:38;;;;;;;0.57;0.35;;;11.10;99.90;;;;;;5081972;28;20469;-77
2023/07/04 02:06:05;;;;;;;0.30;0.30;;;11.10;99.90;;;;;;5083136;28;20156;-78
2023/07/04 02:08:30;;;;;;;0.45;0.40;;;11.20;99.90;;;;;;5087479;28;20056;-74
2023/07/04 02:10:56;;;;;;;0.60;0.40;;;11.10;99.90;;;;;;5085224;28;20050;-73
2023/07/04 02:13:23;;;;;;;0.70;0.32;;;11.20;99.90;;;;;;5064583;28;20066;-74
2023/07/04 02:15:48;;;;;;;2.25;0.57;;;11.30;99.90;;;;;;5054632;28;20052;-74
2023/07/04 02:18:14;;;;;;;0.35;0.30;;;11.20;99.90;;;;;;5054747;28;20117;-74
2023/07/04 02:20:40;;;;;;;0.73;0.40;;;11.40;99.90;;;;;;5071679;28;20043;-73
2023/07/04 02:23:06;;;;;;;1.58;0.50;;;11.40;99.90;;;;;;5088147;28;20377;-73
2023/07/04 02:25:31;;;;;;;1.55;0.40;;;11.30;99.90;;;;;;5087894;28;20059;-74
2023/07/04 02:27:57;;;;;;;0.43;0.30;;;11.30;99.90;;;;;;5063909;28;20043;-73
2023/07/04 02:30:23;;;;;;;0.93;0.40;;;11.50;99.90;;;;;;5063924;28;20397;-73
2023/07/04 02:32:48;;;;;;;0.28;0.20;;;11.50;99.90;;;;;;5087333;28;20040;-73
2023/07/04 02:35:14;;;;;;;0.20;0.20;;;11.60;99.90;;;;;;5071881;28;20097;-73
2023/07/04 02:37:40;;;;;;;0.32;0.28;;;11.60;99.90;;;;;;5069564;28;20689;-73
2023/07/04 02:40:07;;;;;;;0.85;0.32;;;11.40;99.90;;;;;;5088519;28;20511;-73
2023/07/04 02:42:32;;;;;;;0.20;0.20;;;11.60;99.90;;;;;;5085885;28;20438;-73
2023/07/04 02:44:58;;;;;;;0.20;0.20;;;11.70;99.90;;;;;;5091550;28;20058;-73
2023/07/04 02:47:26;;;;;;;0.80;0.20;;;11.60;99.90;;;;;;5089571;28;20504;-73
2023/07/04 02:49:54;;;;;;;0.47;0.28;;;11.40;99.90;;;;;;5078818;28;20105;-72
2023/07/04 02:52:21;;;;;;;0.30;0.25;;;11.60;99.90;;;;;;5067628;28;20036;-73
2023/07/04 02:54:47;;;;;;;1.55;0.60;;;11.60;99.90;;;;;;5092380;28;20070;-73
2023/07/04 02:57:16;;;;;;;0.93;0.50;;;11.60;99.90;;;;;;5059102;28;20040;-73
2023/07/04 02:59:42;;;;;;;1.52;0.40;;;11.80;99.90;;;;;;5089018;28;20043;-77
2023/07/04 03:02:07;;;;;;;2.15;0.60;;;11.70;99.90;;;;;;5063760;28;20046;-73
2023/07/04 03:04:33;;;;;;;1.67;0.90;;;11.90;99.90;;;;;;5092432;28;20044;-74
2023/07/04 03:06:59;;;;;;;0.77;0.60;;;11.70;99.90;;;;;;5083959;28;20170;-78
2023/07/04 03:09:26;;;;;;;1.00;0.70;;;12.00;99.90;;;;;;5072714;28;20056;-79
2023/07/04 03:11:52;;;;;;;2.03;0.70;;;12.00;99.90;;;;;;5069623;28;20032;-78
2023/07/04 03:14:17;;;;;;;1.73;0.73;;;11.70;99.90;;;;;;5092427;28;20040;-78
2023/07/04 03:16:43;;;;;;;2.72;0.70;;;11.90;99.90;;;;;;5050379;28;20065;-79
2023/07/04 03:19:09;;;;;;;0.68;0.45;;;11.70;99.90;;;;;;5084461;28;20115;-78
2023/07/04 03:21:34;;;;;;;1.00;0.50;;;11.80;99.90;;;;;;5088570;28;20164;-78
2023/07/04 03:24:00;;;;;;;1.20;0.60;;;11.90;99.90;;;;;;5066656;28;20039;-78
2023/07/04 03:26:25;;;;;;;2.15;0.65;;;12.00;99.90;;;;;;5089308;28;20043;-79
2023/07/04 03:28:51;;;;;;;0.82;0.52;;;11.80;99.90;;;;;;5086600;28;20040;-78
2023/07/04 03:31:17;;;;;;;0.88;0.50;;;11.90;99.90;;;;;;5075644;28;20071;-78
2023/07/04 03:33:42;;;;;;;2.65;0.60;;;11.80;99.90;;;;;;5089935;28;20567;-79
2023/07/04 03:36:08;;;;;;;0.90;0.50;;;11.90;99.90;;;;;;5071644;28;20123;-78
2023/07/04 03:38:34;;;;;;;1.00;0.40;;;11.80;99.90;;;;;;5087850;28;20036;-78
2023/07/04 03:41:00;;;;;;;1.10;0.43;;;11.70;99.90;;;;;;5061509;28;20040;-78
2023/07/04 03:43:26;;;;;;;0.40;0.40;;;11.70;99.90;;;;;;5071156;28;20032;-78
2023/07/04 03:45:51;;;;;;;;;;;11.70;99.90;;;;;;5088977;28;20075;-78
2023/07/04 03:48:17;;;;;;;1.48;0.60;;;11.90;99.90;;;;;;5079256;28;19966;-73
2023/07/04 03:50:43;;;;;;;1.00;0.55;;;11.90;99.90;;;;;;5090776;28;20101;-76
2023/07/04 03:53:09;;;;;;;2.63;0.60;;;11.70;99.90;;;;;;5088000;28;20038;-73
2023/07/04 03:55:35;;;;;;;1.20;0.43;;;11.80;99.90;;;;;;5083837;28;20048;-74
2023/07/04 03:58:02;;;;;;;0.63;0.40;;;11.70;99.90;;;;;;5074822;28;20119;-73
2023/07/04 04:00:28;;;;;;;0.90;0.50;;;11.70;99.90;;;;;;5087445;28;20047;-73
2023/07/04 04:02:53;;;;;;;;;;;11.80;99.90;;;;;;5060683;28;20036;-73
2023/07/04 04:05:19;;;;;;;0.70;0.30;;;11.90;99.90;;;;;;5082051;28;19930;-73
2023/07/04 04:07:48;;;;;;;3.25;0.70;;;11.80;99.90;;;;;;5073922;28;20136;-73
2023/07/04 04:10:15;;;;;;;0.50;0.50;;;11.90;99.90;;;;;;5045840;28;20040;-73
2023/07/04 04:12:41;;;;;;;0.90;0.43;;;11.80;99.90;;;;;;5084275;28;20145;-74
2023/07/04 04:15:07;;;;;;;1.00;0.55;;;11.70;99.90;;;;;;5082792;28;20036;-75
2023/07/04 04:17:33;;;;;;;0.50;0.40;;;11.70;99.90;;;;;;5091765;28;20036;-73
2023/07/04 04:19:58;;;;;;;1.65;0.50;;;11.90;99.90;;;;;;5086212;28;20055;-74
2023/07/04 04:22:24;;;;;;;0.40;0.40;;;11.90;99.90;;;;;;5085462;28;20400;-74
2023/07/04 04:24:50;;;;;;;1.13;0.55;;;11.80;99.90;;;;;;5063306;28;20101;-74
2023/07/04 04:27:15;;;;;;;0.60;0.40;;;11.80;99.90;;;;;;5065840;28;20113;-73
2023/07/04 04:29:42;;;;;;;0.80;0.57;;;12.00;99.90;;;;;;5071111;28;20044;-73
2023/07/04 04:32:07;;;;;;;;;;;12.00;99.90;;;;;;5086383;28;20046;-73
2023/07/04 04:34:34;;;;;;;1.00;0.45;;;12.10;99.90;;;;;;5086334;28;19920;-73
2023/07/04 04:37:00;;;;;;;2.08;0.43;;;12.00;99.90;;;;;;5069759;28;20074;-73
2023/07/04 04:39:29;;;;;;;2.08;0.52;;;12.20;99.90;;;;;;5067303;28;20176;-73
2023/07/04 04:41:58;;;;;;;1.55;0.40;;;12.20;99.90;;;;;;5059103;28;20763;-73
2023/07/04 04:44:24;;;;;;;0.90;0.40;;;12.30;99.90;;;;;;5057874;28;20070;-73
2023/07/04 04:46:50;;;;;;;0.68;0.40;;;12.40;99.90;;;;;;5087967;28;20452;-73
2023/07/04 04:49:34;;;;;;;0.50;0.32;;;12.40;99.90;;;;;;5074855;28;20046;-72
2023/07/04 04:52:00;;;;;;;0.65;0.50;;;12.30;99.90;;;;;;5072759;28;20043;-73
2023/07/04 04:54:26;;;;;;;0.60;0.50;;;12.30;99.90;;;;;;5067970;28;20048;-73
2023/07/04 04:56:52;;;;;;;0.70;0.50;;;12.50;99.90;;;;;;5054353;28;20051;-73
2023/07/04 04:59:17;;;;;;;1.05;0.50;;;12.40;99.90;;;;;;5083220;28;20127;-73
2023/07/04 05:01:45;;;;;;;0.73;0.50;;;12.40;99.90;;;;;;5086010;28;20044;-73
2023/07/04 05:04:10;;;;;;;0.77;0.55;;;12.50;99.90;;;;;;5070756;28;20068;-73
2023/07/04 05:06:36;;;;;;;0.88;0.50;;;12.60;99.90;;;;;;5071903;28;20535;-73
2023/07/04 05:09:02;;;;;;;2.17;0.68;;;12.50;99.90;;;;;;5088196;28;20083;-73
2023/07/04 05:11:28;;;;;;;0.75;0.50;;;12.60;99.90;;;;;;5082859;28;20051;-73
2023/07/04 05:13:53;;;;;;;3.25;0.90;;;12.70;99.90;;;;;;5088790;28;20070;-73
2023/07/04 05:16:21;;;;;;;1.70;0.65;;;12.60;99.90;;;;;;5085004;28;20048;-73
2023/07/04 05:18:48;;;;;;;1.08;0.70;;;12.90;99.90;;;;;;5088750;28;20036;-73
2023/07/04 05:21:17;;;;;;;0.65;0.43;;;12.70;99.90;;;;;;5086014;28;20040;-73
2023/07/04 05:23:44;;;;;;;0.93;0.77;;;12.90;99.90;;;;;;5086556;28;20079;-73
2023/07/04 05:26:18;;;;;;;2.60;0.90;;;12.90;99.90;;;;;;5062499;28;20047;-73
2023/07/04 05:28:46;;;;;;;1.73;1.00;;;12.90;99.90;;;;;;5083773;28;20388;-73
2023/07/04 05:31:16;;;;;;;1.42;1.00;;;13.10;99.90;;;;;;5075820;28;20048;-73
2023/07/04 05:33:42;;;;;;;2.05;1.08;;;13.10;99.90;;;;;;5083590;28;20036;-73
2023/07/04 05:36:22;;;;;;;1.60;0.98;;;13.20;99.90;;;;;;5078388;28;20159;-74
2023/07/04 05:38:49;;;;;;;2.42;1.00;;;13.00;99.90;;;;;;5080697;28;20369;-73
2023/07/04 05:41:17;;;;;;;2.50;0.90;;;13.20;99.90;;;;;;5081117;28;20081;-73
2023/07/04 05:43:44;;;;;;;2.47;1.10;;;13.40;99.90;;;;;;5083856;28;20174;-73
2023/07/04 05:46:11;;;;;;;2.30;1.15;;;13.30;99.90;;;;;;5083414;28;20032;-73
2023/07/04 05:48:37;;;;;;;2.22;1.00;;;13.50;99.90;;;;;;5071465;28;20380;-75
2023/07/04 05:51:06;;;;;;;4.10;1.40;;;13.40;99.90;;;;;;5084751;28;20071;-71
2023/07/04 05:53:33;;;;;;;2.78;1.25;;;13.60;99.90;;;;;;5088578;28;20082;-72
2023/07/04 05:56:06;;;;;;;2.42;1.10;;;13.60;99.90;;;;;;5076774;28;20049;-71
2023/07/04 05:58:32;;;;;;;1.98;1.13;;;13.50;99.90;;;;;;5081581;28;20047;-72
2023/07/04 06:01:13;;;;;;;1.48;1.00;;;13.50;99.90;;;;;;5070918;28;20041;-73
2023/07/04 06:03:40;;;;;;;1.70;1.00;;;13.50;99.90;;;;;;5069660;28;20135;-71
2023/07/04 06:06:15;;;;;;;3.22;1.13;;;13.70;99.90;;;;;;5087070;28;20036;-73
2023/07/04 06:08:41;;;;;;;2.67;1.00;;;13.90;99.90;;;;;;5078011;28;20056;-73
2023/07/04 06:11:07;;;;;;;3.97;1.20;;;14.00;99.90;;;;;;5061683;28;20048;-74
2023/07/04 06:13:33;;;;;;;;;;;14.10;99.90;;;;;;5063390;28;20126;-72
2023/07/04 06:16:02;;;;;;;2.53;1.10;;;14.20;99.90;;;;;;5064377;28;19950;-72
2023/07/04 06:18:28;;;;;;;3.20;1.02;;;14.30;99.90;;;;;;5074524;28;20047;-72
2023/07/04 06:21:10;;;;;;;4.50;1.00;;;14.20;99.90;;;;;;5075068;28;20297;-72
2023/07/04 06:23:36;;;;;;;2.42;0.93;;;14.30;99.90;;;;;;5074701;28;20032;-72
2023/07/04 06:26:02;;;;;;;2.72;0.95;;;14.40;99.90;;;;;;5069695;28;20082;-73
2023/07/04 06:28:28;;;;;;;3.83;1.27;;;14.40;99.90;;;;;;5060512;28;20489;-72
2023/07/04 06:30:54;;;;;;;2.10;0.80;;;14.50;99.90;;;;;;5073629;28;20089;-72
2023/07/04 06:33:20;;;;;;;2.08;0.80;;;14.50;99.90;;;;;;5075319;28;21239;-73
2023/07/04 06:35:45;;;;;;;1.75;0.80;;;14.50;99.90;;;;;;5059263;28;20043;-73
2023/07/04 06:38:11;;;;;;;2.97;0.70;;;14.60;99.90;;;;;;5054709;28;20048;-73
2023/07/04 06:40:37;;;;;;;2.40;0.73;;;14.70;99.90;;;;;;5077457;28;20420;-72
2023/07/04 06:43:05;;;;;;;4.97;1.35;;;14.70;99.90;;;;;;5075010;28;20037;-73
2023/07/04 06:45:35;;;;;;;3.97;0.85;;;14.80;99.90;;;;;;5075006;28;20056;-72
2023/07/04 06:48:04;;;;;;;2.03;0.75;;;14.90;99.90;;;;;;5061201;28;20506;-73
2023/07/04 06:50:30;;;;;;;3.30;1.00;;;15.00;99.90;;;;;;5087656;28;20097;-73
2023/07/04 06:52:55;;;;;;;3.17;0.82;;;15.00;99.90;;;;;;5087905;28;20108;-72
2023/07/04 06:55:21;;;;;;;2.78;0.82;;;15.10;99.90;;;;;;5088108;28;20044;-73
2023/07/04 06:57:47;;;;;;;1.80;0.70;;;15.10;99.90;;;;;;5078268;28;20036;-73
2023/07/04 07:00:13;;;;;;;3.30;1.13;;;15.10;99.90;;;;;;5084878;28;20082;-72
2023/07/04 07:02:39;;;;;;;;;;;15.10;99.90;;;;;;5080449;28;20044;-72
2023/07/04 07:05:06;;;;;;;6.57;0.95;;;15.30;99.90;;;;;;5082576;28;19923;-72
2023/07/04 07:07:32;;;;;;;2.72;0.63;;;15.30;99.90;;;;;;5088279;28;20044;-72
2023/07/04 07:09:58;;;;;;;3.53;1.08;;;15.50;99.90;;;;;;5074990;28;20113;-72
2023/07/04 07:12:23;;;;;;;3.13;0.77;;;15.60;99.90;;;;;;5075265;28;20056;-72
2023/07/04 07:14:49;;;;;;;3.10;1.10;;;15.80;99.90;;;;;;5088061;28;20515;-72
2023/07/04 07:17:15;;;;;;;2.05;0.80;;;16.00;99.90;;;;;;5088552;28;20036;-72
2023/07/04 07:19:41;;;;;;;3.35;0.90;;;16.00;99.90;;;;;;5088328;28;20073;-73
2023/07/04 07:22:06;;;;;;;3.08;0.80;;;16.10;99.90;;;;;;5088187;28;20036;-73
2023/07/04 07:24:33;;;;;;;2.45;0.80;;;16.20;99.90;;;;;;5088326;28;20123;-72
2023/07/04 07:26:59;;;;;;;1.88;0.80;;;16.20;99.90;;;;;;5088485;28;20105;-73
2023/07/04 07:29:26;;;;;;;2.85;0.80;;;16.30;99.90;;;;;;5088520;28;20043;-73
2023/07/04 07:31:52;;;;;;;3.72;1.10;;;16.40;1.00;;;;;;5091054;28;20043;-73
2023/07/04 07:34:18;;;;;;;1.98;0.90;;;16.60;1.00;;;;;;5092036;28;20046;-73
2023/07/04 07:36:45;;;;;;;2.72;0.88;;;16.70;97.10;;;;;;5074826;28;20048;-72
2023/07/04 07:39:13;;;;;;;2.70;1.00;;;16.70;99.90;;;;;;5091766;28;20040;-72
2023/07/04 07:41:41;;;;;;;2.70;0.82;;;16.60;1.00;;;;;;5093268;28;20047;-72
2023/07/04 07:44:08;;;;;;;1.98;0.73;;;16.50;1.00;;;;;;5091912;28;20032;-72
2023/07/04 07:46:34;;;;;;;2.83;0.90;;;16.60;1.00;;;;;;5091434;28;20110;-73
2023/07/04 07:49:00;;;;;;;5.18;1.05;;;16.60;51.40;;;;;;5074650;28;20065;-73
2023/07/04 07:51:26;;;;;;;4.57;1.27;;;16.50;99.90;;;;;;5091832;28;20077;-72
2023/07/04 07:53:54;;;;;;;3.13;0.93;;;16.70;99.90;;;;;;5074710;28;20113;-73
2023/07/04 07:56:24;;;;;;;3.60;0.90;;;16.70;99.90;;;;;;5077367;28;20040;-72
2023/07/04 07:58:50;;;;;;;5.63;1.05;;;16.60;47.40;;;;;;5091325;28;20098;-73
2023/07/04 08:01:17;;;;;;;;;;;16.70;1.00;;;;;;5091552;28;20036;-73
2023/07/04 08:03:43;;;;;;;3.17;1.00;;;16.70;1.00;;;;;;5091569;28;19919;-72
2023/07/04 08:06:19;;;;;;;2.47;1.10;;;16.70;99.90;;;;;;5091095;28;20053;-73
2023/07/04 08:08:45;;;;;;;1.80;1.00;;;16.70;99.90;;;;;;5074286;28;20130;-73
2023/07/04 08:11:14;;;;;;;3.15;1.00;;;16.80;1.00;;;;;;5090909;28;20126;-73
2023/07/04 08:13:40;;;;;;;5.38;1.08;;;16.80;1.00;;;;;;5090967;28;20043;-72
2023/07/04 08:16:06;;;;;;;;;;;16.80;99.90;;;;;;5074705;28;20090;-73
2023/07/04 08:18:34;;;;;;;5.05;1.00;;;16.80;99.90;;;;;;5091077;28;19966;-73
2023/07/04 08:21:02;;;;;;;7.95;1.20;;;16.80;99.90;;;;;;5074101;28;20044;-72
2023/07/04 08:23:28;;;;;;;3.17;1.05;;;16.80;99.90;;;;;;5084096;28;20040;-72
2023/07/04 08:25:54;;;;;;;2.92;0.80;;;16.90;99.90;;;;;;5081326;28;20045;-71
2023/07/04 08:28:26;;;;;;;4.70;0.93;;;17.10;99.90;;;;;;5081975;28;20036;-72
2023/07/04 08:31:09;;;;;;;4.22;1.10;;;17.20;99.90;;;;;;5082143;28;20047;-73
2023/07/04 08:33:35;;;;;;;3.55;0.90;;;17.30;32.30;;;;;;5088152;28;20105;-72
2023/07/04 08:36:06;;;;;;;4.88;1.10;;;17.20;1.00;;;;;;5083526;28;20048;-72
2023/07/04 08:38:33;;;;;;;2.95;0.90;;;17.20;1.00;;;;;;5065315;28;20371;-72
2023/07/04 08:40:59;;;;;;;3.13;1.00;;;17.10;50.60;;;;;;5088087;28;20041;-72
2023/07/04 08:43:44;;;;;;;3.20;1.02;;;17.10;58.80;;;;;;5085707;28;20040;-72
2023/07/04 08:46:12;;;;;;;3.40;1.02;;;17.10;94.00;;;;;;5077083;28;20074;-73
2023/07/04 08:48:40;;;;;;;2.40;1.02;;;17.20;70.40;;;;;;5088596;28;20128;-72
2023/07/04 08:51:06;;;;;;;5.57;1.08;;;17.40;98.80;;;;;;5087974;28;20505;-72
2023/07/04 08:53:32;;;;;;;;;;;17.70;75.00;;;;;;5083306;28;20135;-72
2023/07/04 08:56:10;;;;;;;5.13;1.15;;;17.60;15.10;;;;;;5071306;28;19963;-73
2023/07/04 08:58:48;;;;;;;4.63;1.30;;;17.80;1.00;;;;;;5081034;28;20043;-72
2023/07/04 09:01:22;;;;;;;5.30;1.35;;;18.00;1.00;;;;;;5080692;28;20048;-73
2023/07/04 09:04:03;;;;;;;3.38;1.15;;;18.20;99.90;;;;;;5070751;28;20090;-72
2023/07/04 09:06:42;;;;;;;3.95;1.17;;;18.50;99.90;;;;;;5087431;28;20147;-73
2023/07/04 09:09:16;;;;;;;7.03;1.67;;;18.80;1.00;;;;;;5088168;28;20135;-72
2023/07/04 09:11:42;;;;;;;4.95;1.40;;;18.70;99.90;;;;;;5061235;28;20040;-72
2023/07/04 09:14:25;;;;;;;3.70;1.60;;;18.70;1.00;;;;;;5083326;28;20040;-72
2023/07/04 09:16:53;;;;;;;4.22;1.45;;;18.80;99.90;;;;;;5072721;28;20044;-73
2023/07/04 09:19:20;;;;;;;6.60;1.48;;;18.50;1.00;;;;;;5089307;28;20170;-74
2023/07/04 09:21:46;;;;;;;4.47;1.80;;;18.30;99.90;;;;;;5090495;28;20616;-73
2023/07/04 09:24:12;;;;;;;;;;;18.50;99.90;;;;;;5082502;28;20036;-74
2023/07/04 09:26:52;;;;;;;7.47;1.70;;;18.80;99.90;;;;;;5081923;28;20233;-72
2023/07/04 09:29:21;;;;;;;4.32;1.52;;;19.00;99.90;;;;;;5077777;28;20043;-72
2023/07/04 09:31:55;;;;;;;7.78;1.42;;;19.30;99.90;;;;;;5085547;28;20042;-73
2023/07/04 09:34:26;;;;;;;3.95;1.60;;;19.20;99.90;;;;;;5076776;28;20572;-73
2023/07/04 09:36:53;;;;;;;5.25;1.70;;;19.20;99.90;;;;;;5064192;28;20413;-73
2023/07/04 09:39:19;;;;;;;4.22;1.63;;;19.20;99.90;;;;;;5075518;28;20156;-73
2023/07/04 09:41:55;;;;;;;;;;;19.00;99.90;;;;;;5071301;28;20506;-73
2023/07/04 09:44:27;;;;;;;4.03;1.42;;;19.00;99.90;;;;;;5076821;28;19916;-72
2023/07/04 09:46:54;;;;;;;4.72;1.67;;;19.10;99.90;;;;;;5074484;28;20801;-74
2023/07/04 09:49:28;;;;;;;3.97;1.58;;;19.30;99.90;;;;;;5072361;28;20512;-73
2023/07/04 09:52:00;;;;;;;4.70;1.30;;;19.40;99.90;;;;;;5086379;28;20488;-73
2023/07/04 09:54:26;;;;;;;6.80;1.70;;;19.00;99.90;;;;;;5071120;28;20043;-72
2023/07/04 09:56:51;;;;;;;;;;;18.50;99.90;;;;;;5089269;28;20388;-73
2023/07/04 09:59:22;;;;;;;4.55;1.60;;;18.40;99.90;;;;;;5088493;28;19967;-73
2023/07/04 10:01:50;;;;;;;5.60;1.48;;;18.40;99.90;;;;;;5066034;28;20036;-73
2023/07/04 10:04:26;;;;;;;5.15;1.60;;;18.70;99.90;;;;;;5079278;28;20036;-72
2023/07/04 10:06:53;;;;;;;3.65;1.20;;;18.90;99.90;;;;;;5076493;28;20074;-72
2023/07/04 10:09:20;;;;;;;4.32;1.40;;;18.80;99.90;;;;;;5072475;28;20060;-73
2023/07/04 10:12:06;;;;;;;5.78;1.35;;;18.70;99.90;;;;;;5084429;28;20139;-73
2023/07/04 10:14:35;;;;;;;4.65;1.35;;;18.40;99.90;;;;;;5083737;28;20397;-72
2023/07/04 10:17:15;;;;;;;6.18;1.40;;;18.60;99.90;;;;;;5088613;28;20040;-72
2023/07/04 10:19:43;;;;;;;5.05;1.67;;;18.40;99.90;;;;;;5082635;28;20040;-72
2023/07/04 10:22:08;;;;;;;4.10;1.20;;;18.80;99.90;;;;;;5087223;28;20100;-72
2023/07/04 10:24:34;;;;;;;;;;;19.20;99.90;;;;;;5087468;28;20130;-73
2023/07/04 10:27:04;;;;;;;5.20;1.50;;;19.50;99.90;;;;;;5071313;28;20661;-74
2023/07/04 10:29:40;;;;;;;4.85;1.20;;;19.80;99.90;;;;;;5083257;28;20048;-73
2023/07/04 10:32:15;;;;;;;3.00;1.20;;;19.30;69.00;;;;;;5086070;28;20452;-72
2023/07/04 10:34:43;;;;;;;5.53;1.50;;;19.40;99.90;;;;;;5085441;28;20483;-73
2023/07/04 10:37:19;;;;;;;4.30;1.30;;;19.50;98.50;;;;;;5088311;28;20123;-73
2023/07/04 10:39:45;;;;;;;5.38;1.48;;;19.50;96.10;;;;;;5086923;28;20094;-74
2023/07/04 10:42:16;;;;;;;4.28;1.27;;;19.30;93.10;;;;;;5087995;28;20074;-74
2023/07/04 10:44:46;;;;;;;6.40;1.20;;;19.00;99.90;;;;;;5068432;28;20159;-73
2023/07/04 10:47:19;;;;;;;4.90;1.50;;;18.80;99.90;;;;;;5095148;28;20541;-73
2023/07/04 10:49:54;;;;;;;3.70;1.25;;;18.60;99.90;;;;;;5083295;28;20044;-73
2023/07/04 10:52:30;;;;;;;4.45;1.25;;;18.80;99.90;;;;;;5076901;28;20037;-72
2023/07/04 10:54:58;;;;;;;4.18;1.20;;;18.90;99.90;;;;;;5073323;28;20041;-72
2023/07/04 10:57:29;;;;;;;5.70;1.20;;;19.00;99.90;;;;;;5064083;28;20553;-73
2023/07/04 10:59:59;;;;;;;5.13;1.45;;;18.70;99.90;;;;;;5082977;28;20044;-72
2023/07/04 11:02:39;;;;;;;6.80;2.10;;;18.50;99.90;;;;;;5080436;28;20127;-72
2023/07/04 11:05:21;;;;;;;5.47;1.48;;;18.20;99.90;;;;;;5078131;28;20060;-74
2023/07/04 11:07:51;;;;;;;4.97;1.40;;;18.20;99.90;;;;;;5075173;28;20040;-74
2023/07/04 11:10:23;;;;;;;5.75;1.52;;;18.10;99.90;;;;;;5087037;28;20036;-74
2023/07/04 11:12:52;;;;;;;4.28;1.40;;;18.20;99.90;;;;;;5087698;28;20120;-74
2023/07/04 11:15:27;;;;;;;4.03;1.42;;;18.40;99.90;;;;;;5081292;28;20059;-74
2023/07/04 11:17:54;;;;;;;5.30;1.45;;;18.50;99.90;;;;;;5071361;28;20036;-74
2023/07/04 11:21:08;;;;;;;4.15;1.33;;;18.40;99.90;;;;;;5084549;28;20048;-77
2023/07/04 11:23:47;;;;;;;6.70;1.65;;;18.30;99.90;;;;;;5071156;28;20097;-78
2023/07/04 11:26:13;;;;;;;4.22;1.55;;;18.50;99.90;;;;;;5085474;28;20181;-77
2023/07/04 11:28:38;;;;;;;;;;;19.10;99.90;;;;;;5079414;28;20143;-76
2023/07/04 11:31:23;;;;;;;4.22;1.50;;;19.40;56.70;;;;;;5081109;28;19928;-77
2023/07/04 11:33:52;;;;;;;5.35;1.48;;;19.70;26.20;;;;;;5080018;28;20037;-78
2023/07/04 11:36:36;;;;;;;7.68;2.13;;;20.00;1.00;;;;;;5072458;28;20047;-77
2023/07/04 11:39:34;;;;;;;5.78;1.40;;;19.90;1.00;;;;;;5068552;28;20037;-75
2023/07/04 11:42:22;;;;;;;3.95;1.20;;;20.10;1.00;;;;;;5079447;28;20047;-77
2023/07/04 11:45:05;;;;;;;5.30;1.80;;;20.20;1.00;;;;;;5079044;28;20423;-74
2023/07/04 11:47:57;;;;;;;5.57;1.50;;;19.80;1.00;;;;;;5080032;28;20068;-74
2023/07/04 11:50:48;;;;;;;3.15;1.23;;;19.70;1.00;;;;;;5076804;28;20113;-75
2023/07/04 11:53:43;;;;;;;5.43;1.70;;;19.80;56.20;;;;;;5070317;28;20099;-74
2023/07/04 11:56:18;;;;;;;5.32;1.60;;;19.70;1.00;;;;;;5081567;28;20035;-75
2023/07/04 11:58:45;;;;;;;6.03;1.60;;;19.80;1.00;;;;;;5064914;28;20031;-74
2023/07/04 12:01:14;;;;;;;3.97;1.20;;;19.70;1.00;;;;;;5085447;28;20547;-72
2023/07/04 12:03:57;;;;;;;4.72;1.50;;;19.80;1.00;;;;;;5087861;28;20094;-72
2023/07/04 12:07:17;;;;;;;4.97;1.50;;;19.90;1.00;;;;;;5079892;28;20049;-73
2023/07/04 12:09:58;;;;;;;5.90;1.75;;;20.00;1.00;;;;;;5048537;28;20052;-72
2023/07/04 12:12:30;;;;;;;3.97;1.40;;;20.00;1.00;;;;;;5086560;28;20056;-71
2023/07/04 12:15:09;;;;;;;3.42;1.40;;;20.00;1.00;;;;;;5061629;28;20113;-72
2023/07/04 12:17:40;;;;;;;4.95;1.42;;;20.00;1.00;;;;;;5076112;28;20052;-74
2023/07/04 12:20:11;;;;;;;4.57;1.58;;;20.30;1.00;;;;;;5075633;28;20477;-74
2023/07/04 12:22:44;;;;;;;5.80;1.63;;;20.30;1.00;;;;;;5077166;28;20566;-75
2023/07/04 12:25:34;;;;;;;4.05;1.40;;;20.10;99.90;;;;;;5058588;28;20112;-72
2023/07/04 12:28:03;;;;;;;5.40;1.25;;;19.90;1.00;;;;;;5085283;28;20541;-72
2023/07/04 12:30:32;;;;;;;4.88;1.30;;;19.70;1.00;;;;;;5079636;28;20048;-73
2023/07/04 12:32:58;;;;;;;5.07;1.65;;;19.80;1.00;;;;;;5083502;28;20032;-72
2023/07/04 12:35:25;;;;;;;;;;;19.70;1.00;;;;;;5078543;28;20047;-72
2023/07/04 12:37:53;;;;;;;4.85;1.55;;;19.80;1.00;;;;;;5088104;28;20331;-71
2023/07/04 12:40:23;;;;;;;5.65;1.58;;;20.20;1.00;;;;;;5090243;28;20401;-71
2023/07/04 12:42:50;;;;;;;5.57;1.70;;;20.60;1.00;;;;;;5090528;28;20048;-72
2023/07/04 12:45:20;;;;;;;4.32;1.30;;;20.50;1.00;;;;;;5090169;28;20054;-73
2023/07/04 12:47:47;;;;;;;5.35;1.38;;;20.20;1.00;;;;;;5099723;28;20136;-71
2023/07/04 12:50:17;;;;;;;6.00;1.33;;;20.50;1.00;;;;;;5090162;28;20052;-71
2023/07/04 12:52:45;;;;;;;3.08;1.20;;;20.70;1.00;;;;;;5073283;28;20463;-71
2023/07/04 12:55:39;;;;;;;5.57;1.58;;;20.70;1.00;;;;;;5090358;28;20065;-71
2023/07/04 12:58:06;;;;;;;3.80;1.25;;;20.90;1.00;;;;;;5086317;28;20086;-72
2023/07/04 13:00:40;;;;;;;7.18;1.40;;;21.20;1.00;;;;;;5089953;28;20043;-71
2023/07/04 13:03:11;;;;;;;5.57;1.40;;;20.90;99.90;;;;;;5093739;28;20329;-72
2023/07/04 13:05:46;;;;;;;4.90;1.33;;;20.50;99.90;;;;;;5080447;28;20040;-73